East Lynn, West Virginia
Current Conditions -  °F | °C
As of 9:51 AM on Friday 24 Oct 2014 (Local Time) from KHTS Reporting Station
Haze Haze  
Wind Chill: 44°   Ceiling: Unl
Heat Index: 44°   Visibility: 5mi
Dew Point: 43°   Wind: 3mph
Humidity: 96%   Direction: 200°SSW
Pressure: 30.14"   Gusts: NA
Location:  38.17°N, 82.38°W
Report Text: KHTS 241351Z 20003KT 5SM BR CLR 07/06 A3014 RMK AO2 SLP207 T00670061
Loading
Personal Weather Stations






























Interactive Weather Map
Tropical Storm Tracking
New forecast layout! Learn more

10-Day Weather Forecast

Advertisements
Track Severe Weather on mobile